createdAt,value
2018-10-11T00:00:26.358Z,101636.91
2018-10-11T00:05:19.075Z,101637.13
2018-10-11T00:10:11.774Z,101635.14
2018-10-11T00:15:04.482Z,101640.23
2018-10-11T00:19:57.163Z,101632.80
2018-10-11T00:24:49.854Z,101635.97
2018-10-11T00:29:42.473Z,101634.24
2018-10-11T00:34:35.079Z,101642.33
2018-10-11T00:39:27.727Z,101634.94
2018-10-11T00:44:20.847Z,101626.93
2018-10-11T00:49:13.476Z,101628.23
2018-10-11T00:54:06.201Z,101628.97
2018-10-11T00:58:58.904Z,101614.45
2018-10-11T01:03:51.511Z,101606.47
2018-10-11T01:08:44.178Z,101604.45
2018-10-11T01:13:36.753Z,101594.58
2018-10-11T01:18:29.748Z,101589.03
2018-10-11T01:23:22.366Z,101579.96
2018-10-11T01:28:14.992Z,101582.63
2018-10-11T01:33:07.614Z,101581.17
2018-10-11T01:38:00.231Z,101587.08
2018-10-11T01:43:03.437Z,101581.55
2018-10-11T01:47:56.626Z,101582.85
2018-10-11T01:52:49.233Z,101586.64
2018-10-11T01:57:41.910Z,101588.52
2018-10-11T02:02:34.493Z,101574.80
2018-10-11T02:07:27.076Z,101582.13
2018-10-11T02:12:19.643Z,101579.88
2018-10-11T02:17:12.334Z,101581.66
2018-10-11T02:22:04.949Z,101579.17
2018-10-11T02:26:57.561Z,101564.90
2018-10-11T02:31:50.201Z,101554.73
2018-10-11T02:36:42.828Z,101551.36
2018-10-11T02:41:35.482Z,101549.13
2018-10-11T02:46:28.086Z,101549.84
2018-10-11T02:51:20.701Z,101549.19
2018-10-11T02:56:13.394Z,101540.11
2018-10-11T03:01:07.037Z,101535.48
2018-10-11T03:06:00.561Z,101534.08
2018-10-11T03:10:53.213Z,101540.52
2018-10-11T03:15:45.865Z,101544.80
2018-10-11T03:20:39.338Z,101539.26
2018-10-11T03:25:32.005Z,101537.31
2018-10-11T03:30:24.656Z,101535.34
2018-10-11T03:35:17.278Z,101533.05
2018-10-11T03:40:09.910Z,101524.00
2018-10-11T03:45:02.562Z,101522.83
2018-10-11T03:49:55.219Z,101520.88
2018-10-11T03:54:47.795Z,101515.16
2018-10-11T03:59:40.535Z,101518.17
2018-10-11T04:04:33.141Z,101515.45
2018-10-11T04:09:25.921Z,101516.81
2018-10-11T04:14:18.658Z,101505.90
2018-10-11T04:19:11.382Z,101508.30
2018-10-11T04:24:03.983Z,101510.16
2018-10-11T04:28:56.669Z,101502.55
2018-10-11T04:33:49.309Z,101495.77
2018-10-11T04:38:41.945Z,101493.05
2018-10-11T04:43:34.581Z,101487.27
2018-10-11T04:48:27.394Z,101478.52
2018-10-11T04:53:20.031Z,101480.87
2018-10-11T04:58:12.701Z,101481.35
2018-10-11T05:03:06.003Z,101481.30
2018-10-11T05:07:58.634Z,101483.22
2018-10-11T05:12:51.369Z,101480.20
2018-10-11T05:17:45.409Z,101474.20
2018-10-11T05:22:38.041Z,101477.44
2018-10-11T05:27:30.739Z,101485.58
2018-10-11T05:37:31.319Z,101483.69
2018-10-11T05:42:24.071Z,101495.66
2018-10-11T05:47:16.812Z,101491.09
2018-10-11T05:52:09.549Z,101480.53
2018-10-11T05:57:02.242Z,101477.58
2018-10-11T06:01:54.934Z,101482.23
2018-10-11T06:06:48.315Z,101474.69
2018-10-11T06:11:40.999Z,101477.98
2018-10-11T06:16:33.825Z,101486.39
2018-10-11T06:21:26.490Z,101478.60
2018-10-11T06:26:19.203Z,101470.81
2018-10-11T06:31:11.877Z,101478.34
2018-10-11T06:36:04.621Z,101476.48
2018-10-11T06:40:57.649Z,101466.69
2018-10-11T06:45:50.335Z,101474.13
2018-10-11T06:50:43.616Z,101481.89
2018-10-11T06:55:36.273Z,101477.41
2018-10-11T07:00:28.974Z,101499.39
2018-10-11T07:05:21.651Z,101494.28
2018-10-11T07:10:14.269Z,101507.42
2018-10-11T07:15:07.019Z,101487.61
2018-10-11T07:19:59.621Z,101495.25
2018-10-11T07:24:52.266Z,101540.13
2018-10-11T07:29:44.931Z,101511.18
2018-10-11T07:34:37.738Z,101496.42
2018-10-11T07:39:30.358Z,101509.09
2018-10-11T07:44:23.078Z,101505.74
2018-10-11T07:49:15.762Z,101486.56
2018-10-11T07:54:08.602Z,101489.94
2018-10-11T07:59:01.735Z,101480.23
2018-10-11T08:03:54.399Z,101479.30
2018-10-11T08:08:47.003Z,101473.95
2018-10-11T08:13:39.689Z,101462.02
2018-10-11T08:18:32.402Z,101468.92
2018-10-11T08:23:25.046Z,101483.74
2018-10-11T08:28:17.619Z,101484.34
2018-10-11T08:33:10.332Z,101484.94
2018-10-11T08:38:03.246Z,101490.98
2018-10-11T08:42:55.751Z,101502.73
2018-10-11T08:47:48.340Z,101479.23
2018-10-11T08:52:40.984Z,101456.28
2018-10-11T08:57:33.659Z,101494.55
2018-10-11T09:02:26.279Z,101491.25
2018-10-11T09:07:18.894Z,101470.13
2018-10-11T09:12:11.501Z,101473.09
2018-10-11T09:17:04.294Z,101451.69
2018-10-11T09:21:56.925Z,101468.33
2018-10-11T09:26:49.551Z,101492.09
2018-10-11T09:31:42.309Z,101470.33
2018-10-11T09:36:35.019Z,101471.28
2018-10-11T09:41:27.638Z,101463.56
2018-10-11T09:46:20.421Z,101468.69
2018-10-11T09:51:13.061Z,101467.20
2018-10-11T09:56:05.862Z,101465.65
2018-10-11T10:01:04.260Z,101470.36
2018-10-11T10:05:56.959Z,101467.37
2018-10-11T10:10:49.681Z,101469.48
2018-10-11T10:15:42.587Z,101452.98
2018-10-11T10:20:35.159Z,101465.00
2018-10-11T10:25:28.295Z,101459.53
2018-10-11T10:30:26.457Z,101463.40
2018-10-11T10:35:19.139Z,101459.63
2018-10-11T10:40:11.772Z,101456.09
2018-10-11T10:45:05.141Z,101447.85
2018-10-11T10:49:57.822Z,101429.22
2018-10-11T10:54:50.474Z,101418.96
2018-10-11T10:59:43.158Z,101412.58
2018-10-11T11:04:35.862Z,101402.42
2018-10-11T11:09:28.587Z,101415.61
2018-10-11T11:14:21.292Z,101410.95
2018-10-11T11:19:14.605Z,101409.89
2018-10-11T11:24:07.320Z,101388.98
2018-10-11T11:29:00.118Z,101382.13
2018-10-11T11:33:52.773Z,101388.34
2018-10-11T11:38:45.670Z,101378.80
2018-10-11T11:43:38.338Z,101384.95
2018-10-11T11:48:30.981Z,101387.70
2018-10-11T11:53:23.610Z,101386.95
2018-10-11T11:58:16.267Z,101374.59
2018-10-11T12:03:08.911Z,101385.56
2018-10-11T12:08:01.660Z,101393.30
2018-10-11T12:12:55.911Z,101385.59
2018-10-11T12:17:48.606Z,101375.77
2018-10-11T12:22:41.275Z,101370.30
2018-10-11T12:27:33.905Z,101367.47
2018-10-11T12:32:26.581Z,101382.02
2018-10-11T12:37:19.260Z,101364.09
2018-10-11T12:42:12.084Z,101366.81
2018-10-11T12:47:04.754Z,101361.95
2018-10-11T12:51:57.465Z,101352.81
2018-10-11T12:56:50.063Z,101328.65
2018-10-11T13:01:42.759Z,101350.20
2018-10-11T13:06:35.538Z,101347.41
2018-10-11T13:11:28.177Z,101338.16
2018-10-11T13:16:20.850Z,101332.98
2018-10-11T13:21:13.562Z,101328.92
2018-10-11T13:26:06.191Z,101327.09
2018-10-11T13:30:58.848Z,101317.06
2018-10-11T13:35:51.453Z,101326.23
2018-10-11T13:40:44.149Z,101318.08
2018-10-11T13:45:36.828Z,101314.36
2018-10-11T13:50:29.542Z,101321.89
2018-10-11T13:55:22.181Z,101311.18
2018-10-11T14:00:15.025Z,101306.27
2018-10-11T14:05:07.749Z,101304.40
2018-10-11T14:10:00.441Z,101309.17
2018-10-11T14:14:53.086Z,101299.32
2018-10-11T14:19:45.792Z,101300.55
2018-10-11T14:24:38.419Z,101297.30
2018-10-11T14:29:31.143Z,101294.60
2018-10-11T14:34:23.845Z,101293.86
2018-10-11T14:39:16.733Z,101277.29
2018-10-11T14:44:09.374Z,101289.96
2018-10-11T14:49:02.304Z,101281.53
2018-10-11T14:53:58.874Z,101285.63
2018-10-11T14:58:47.667Z,101280.58
2018-10-11T15:03:40.317Z,101269.30
2018-10-11T15:08:32.986Z,101263.94
2018-10-11T15:13:25.608Z,101271.94
2018-10-11T15:18:18.378Z,101272.32
2018-10-11T15:23:11.079Z,101282.29
2018-10-11T15:28:03.700Z,101292.17
2018-10-11T15:32:56.326Z,101285.81
2018-10-11T15:37:48.987Z,101286.50
2018-10-11T15:42:41.678Z,101294.42
2018-10-11T15:47:34.273Z,101289.19
2018-10-11T15:52:26.957Z,101289.77
2018-10-11T15:57:19.595Z,101288.62
2018-10-11T16:02:12.297Z,101281.37
2018-10-11T16:07:05.229Z,101290.06
2018-10-11T16:11:57.833Z,101294.39
2018-10-11T16:16:50.608Z,101292.14
2018-10-11T16:21:43.170Z,101290.50
2018-10-11T16:26:35.732Z,101300.95
2018-10-11T16:31:28.369Z,101307.51
2018-10-11T16:36:21.001Z,101302.77
2018-10-11T16:41:13.717Z,101307.42
2018-10-11T16:46:06.385Z,101308.77
2018-10-11T16:50:58.984Z,101317.80
2018-10-11T16:55:51.642Z,101318.47
2018-10-11T17:00:44.289Z,101325.13
2018-10-11T17:05:36.892Z,101316.58
2018-10-11T17:10:29.502Z,101333.49
2018-10-11T17:15:22.183Z,101334.20
2018-10-11T17:20:14.834Z,101334.34
2018-10-11T17:25:07.448Z,101333.17
2018-10-11T17:30:00.107Z,101334.59
2018-10-11T17:34:52.732Z,101331.31
2018-10-11T17:39:45.353Z,101330.67
2018-10-11T17:44:37.988Z,101325.80
2018-10-11T17:49:30.617Z,101325.89
2018-10-11T17:54:23.390Z,101324.02
2018-10-11T17:59:15.981Z,101319.98
2018-10-11T18:04:08.491Z,101330.20
2018-10-11T18:09:01.134Z,101323.69
2018-10-11T18:13:53.806Z,101325.37
2018-10-11T18:18:46.377Z,101331.70
2018-10-11T18:23:39.018Z,101328.52
2018-10-11T18:28:31.813Z,101328.62
2018-10-11T18:33:24.391Z,101326.21
2018-10-11T18:38:16.987Z,101329.32
2018-10-11T18:43:09.614Z,101329.16
2018-10-11T18:48:02.193Z,101338.53
2018-10-11T18:52:54.849Z,101343.27
2018-10-11T18:57:47.499Z,101348.28
2018-10-11T19:02:40.050Z,101349.23
2018-10-11T19:07:32.759Z,101348.43
2018-10-11T19:12:25.406Z,101350.41
2018-10-11T19:17:17.894Z,101358.45
2018-10-11T19:22:10.622Z,101357.12
2018-10-11T19:27:03.185Z,101358.02
2018-10-11T19:31:55.840Z,101357.27
2018-10-11T19:36:48.426Z,101364.17
2018-10-11T19:41:41.131Z,101371.34
2018-10-11T19:46:33.721Z,101383.73
2018-10-11T19:51:26.337Z,101379.14
2018-10-11T19:56:19.054Z,101377.79
2018-10-11T20:01:11.723Z,101388.79
2018-10-11T20:06:04.504Z,101397.01
2018-10-11T20:10:57.134Z,101394.59
2018-10-11T20:15:49.754Z,101401.72
2018-10-11T20:20:42.357Z,101400.38
2018-10-11T20:25:35.106Z,101409.14
2018-10-11T20:30:27.750Z,101403.16
2018-10-11T20:35:20.770Z,101409.45
2018-10-11T20:40:13.386Z,101417.14
2018-10-11T20:45:06.284Z,101422.61
2018-10-11T20:49:58.989Z,101422.64
2018-10-11T20:54:51.646Z,101424.83
2018-10-11T20:59:44.480Z,101416.10
2018-10-11T21:04:37.306Z,101428.67
2018-10-11T21:09:29.945Z,101434.66
2018-10-11T21:14:22.646Z,101435.77
2018-10-11T21:19:15.220Z,101441.50
2018-10-11T21:24:07.802Z,101432.48
2018-10-11T21:29:00.401Z,101436.05
2018-10-11T21:33:53.070Z,101436.87
2018-10-11T21:38:45.791Z,101440.69
2018-10-11T21:43:38.380Z,101446.16
2018-10-11T21:48:31.087Z,101445.59
2018-10-11T21:53:23.721Z,101439.86
2018-10-11T21:58:16.293Z,101440.95
2018-10-11T22:03:08.885Z,101446.39
2018-10-11T22:08:01.458Z,101445.02
2018-10-11T22:12:54.305Z,101447.45
2018-10-11T22:17:46.918Z,101454.56
2018-10-11T22:22:43.050Z,101446.33
2018-10-11T22:27:36.189Z,101451.48
2018-10-11T22:32:28.773Z,101454.75
2018-10-11T22:37:21.705Z,101448.98
2018-10-11T22:42:14.328Z,101457.16
2018-10-11T22:47:06.997Z,101455.25
2018-10-11T22:51:59.581Z,101451.67
2018-10-11T22:56:52.165Z,101451.13
2018-10-11T23:01:44.889Z,101442.94
2018-10-11T23:06:37.816Z,101447.55
2018-10-11T23:11:30.698Z,101448.06
2018-10-11T23:16:23.378Z,101445.59
2018-10-11T23:21:15.998Z,101450.17
2018-10-11T23:26:08.678Z,101456.69
2018-10-11T23:31:01.332Z,101460.48
2018-10-11T23:35:53.959Z,101468.13
2018-10-11T23:40:46.643Z,101462.39
2018-10-11T23:45:39.317Z,101465.64
2018-10-11T23:50:31.950Z,101473.80
2018-10-11T23:55:24.616Z,101473.48
